Time;durP1;ratioP1;P1;durP2;ratioP2;P2;SDS_P1;SDS_P2;PMS_P1;PMS_P2;Temp;Humidity;BMP_temperature;BMP_pressure;BME280_temperature;BME280_humidity;BME280_pressure;Samples;Min_cycle;Max_cycle;Signal;HPM_P1;HPM_P2
2022/12/20 00:01:29;;;;;;;18.33;11.50;;;;;;;;;;5010318;28;20425;-68
2022/12/20 00:03:57;;;;;;;17.40;11.50;;;;;;;;;;4992683;28;20776;-68
2022/12/20 00:06:23;;;;;;;21.63;11.10;;;;;;;;;;5007403;28;20439;-68
2022/12/20 00:08:56;;;;;;;22.80;13.93;;;;;;;;;;5008574;28;20427;-68
2022/12/20 00:11:23;;;;;;;25.73;12.60;;;;;;;;;;5009886;28;20484;-68
2022/12/20 00:13:49;;;;;;;24.33;14.13;;;;;;;;;;5010209;28;20542;-68
2022/12/20 00:16:22;;;;;;;18.90;12.40;;;;;;;;;;5009845;28;21006;-68
2022/12/20 00:18:51;;;;;;;22.07;11.10;;;;;;;;;;5009172;28;20433;-68
2022/12/20 00:21:17;;;;;;;18.03;10.70;;;;;;;;;;5008951;28;20432;-68
2022/12/20 00:23:43;;;;;;;13.97;8.70;;;;;;;;;;5010142;28;20502;-68
2022/12/20 00:26:11;;;;;;;6.83;5.00;;;;;;;;;;4991700;28;20543;-67
2022/12/20 00:28:38;;;;;;;7.10;5.70;;;;;;;;;;5008606;28;20440;-68
2022/12/20 00:31:04;;;;;;;6.40;4.50;;;;;;;;;;5008659;28;20494;-68
2022/12/20 00:33:30;;;;;;;11.03;9.37;;;;;;;;;;5009292;28;20444;-68
2022/12/20 00:35:57;;;;;;;14.77;10.43;;;;;;;;;;5007515;28;20486;-68
2022/12/20 00:38:23;;;;;;;15.60;10.80;;;;;;;;;;5008577;28;20435;-68
2022/12/20 00:40:59;;;;;;;12.50;9.40;;;;;;;;;;5009303;28;20449;-68
2022/12/20 00:43:25;;;;;;;12.10;8.73;;;;;;;;;;4991134;28;20423;-68
2022/12/20 00:45:52;;;;;;;11.60;8.33;;;;;;;;;;5008580;28;20444;-68
2022/12/20 00:48:17;;;;;;;11.17;7.93;;;;;;;;;;5008311;28;21014;-67
2022/12/20 00:50:43;;;;;;;8.50;7.70;;;;;;;;;;5008792;28;20492;-68
2022/12/20 00:53:09;;;;;;;11.60;7.00;;;;;;;;;;5009435;28;20579;-68
2022/12/20 00:55:40;;;;;;;8.20;7.37;;;;;;;;;;5008729;28;20440;-68
2022/12/20 00:58:06;;;;;;;11.13;7.67;;;;;;;;;;5007352;28;20439;-68
2022/12/20 01:00:32;;;;;;;9.30;6.57;;;;;;;;;;5008911;28;20437;-68
2022/12/20 01:02:58;;;;;;;5.93;5.47;;;;;;;;;;5009177;28;20448;-67
2022/12/20 01:05:24;;;;;;;8.30;6.60;;;;;;;;;;5008915;28;20436;-67
2022/12/20 01:07:50;;;;;;;10.60;6.00;;;;;;;;;;5009262;28;20428;-67
2022/12/20 01:10:17;;;;;;;6.70;6.10;;;;;;;;;;5008934;28;20924;-67
2022/12/20 01:12:43;;;;;;;9.60;5.97;;;;;;;;;;4994729;28;21179;-68
2022/12/20 01:15:09;;;;;;;5.87;5.50;;;;;;;;;;5013733;28;20519;-68
2022/12/20 01:17:35;;;;;;;7.30;5.20;;;;;;;;;;5012979;28;20467;-68
2022/12/20 01:20:01;;;;;;;6.23;5.63;;;;;;;;;;5012716;28;20463;-66
2022/12/20 01:22:27;;;;;;;5.70;5.20;;;;;;;;;;5013574;28;20435;-67
2022/12/20 01:24:53;;;;;;;5.83;5.13;;;;;;;;;;4996193;28;20436;-68
2022/12/20 01:27:19;;;;;;;3.23;3.03;;;;;;;;;;4995092;28;20940;-68
2022/12/20 01:29:45;;;;;;;4.93;4.37;;;;;;;;;;5012656;28;20566;-68
2022/12/20 01:32:11;;;;;;;5.17;4.87;;;;;;;;;;4994807;28;20451;-68
2022/12/20 01:34:37;;;;;;;4.10;3.80;;;;;;;;;;4995455;28;20897;-68
2022/12/20 01:37:03;;;;;;;4.60;4.20;;;;;;;;;;5013190;28;20509;-68
2022/12/20 01:39:29;;;;;;;3.70;3.43;;;;;;;;;;5012951;28;20427;-68
2022/12/20 01:41:55;;;;;;;3.83;3.63;;;;;;;;;;5012534;28;20452;-68
2022/12/20 01:44:21;;;;;;;3.00;2.90;;;;;;;;;;5012764;28;20912;-67
2022/12/20 01:46:47;;;;;;;3.30;3.10;;;;;;;;;;5012222;28;20432;-68
2022/12/20 01:49:22;;;;;;;3.13;2.93;;;;;;;;;;5012758;28;20482;-68
2022/12/20 01:51:52;;;;;;;2.13;2.13;;;;;;;;;;5012424;28;20435;-68
2022/12/20 01:54:26;;;;;;;7.93;3.20;;;;;;;;;;5012681;28;20654;-68
2022/12/20 01:56:55;;;;;;;3.00;2.90;;;;;;;;;;4994060;28;20419;-68
2022/12/20 01:59:21;;;;;;;3.17;3.00;;;;;;;;;;5012006;28;20797;-67
2022/12/20 02:01:47;;;;;;;3.70;3.50;;;;;;;;;;5011581;28;20450;-68
2022/12/20 02:04:13;;;;;;;3.40;3.20;;;;;;;;;;5010905;28;20427;-67
2022/12/20 02:06:39;;;;;;;5.67;5.13;;;;;;;;;;5012685;28;20436;-68
2022/12/20 02:09:05;;;;;;;5.10;4.70;;;;;;;;;;5011277;28;20440;-68
2022/12/20 02:11:31;;;;;;;9.50;5.60;;;;;;;;;;5011140;28;20484;-67
2022/12/20 02:14:08;;;;;;;3.90;3.23;;;;;;;;;;5012030;28;20474;-67
2022/12/20 02:16:45;;;;;;;5.33;4.83;;;;;;;;;;5012330;28;20436;-68
2022/12/20 02:19:14;;;;;;;4.50;4.20;;;;;;;;;;5010720;28;20440;-68
2022/12/20 02:21:47;;;;;;;3.33;3.13;;;;;;;;;;5010343;28;20448;-68
2022/12/20 02:24:32;;;;;;;3.87;3.67;;;;;;;;;;4994924;28;21003;-68
2022/12/20 02:27:13;;;;;;;3.37;3.27;;;;;;;;;;5008885;28;20796;-68
2022/12/20 02:29:39;;;;;;;3.70;2.20;;;;;;;;;;5011319;28;20502;-67
2022/12/20 02:32:05;;;;;;;2.33;2.23;;;;;;;;;;5010701;28;20834;-68
2022/12/20 02:34:32;;;;;;;1.97;1.97;;;;;;;;;;5011251;28;20494;-69
2022/12/20 02:36:59;;;;;;;2.30;2.20;;;;;;;;;;5011163;28;20448;-68
2022/12/20 02:39:26;;;;;;;1.90;1.90;;;;;;;;;;5011152;28;20446;-67
2022/12/20 02:41:58;;;;;;;3.03;2.20;;;;;;;;;;5010760;28;20932;-68
2022/12/20 02:47:13;;;;;;;3.00;2.87;;;;;;;;;;5011780;28;20840;-68
2022/12/20 02:49:41;;;;;;;3.53;3.23;;;;;;;;;;4993406;28;20462;-68
2022/12/20 02:52:07;;;;;;;2.97;2.40;;;;;;;;;;5010813;28;20443;-68
2022/12/20 02:54:34;;;;;;;2.40;2.30;;;;;;;;;;4994353;28;20483;-69
2022/12/20 02:57:02;;;;;;;2.53;2.43;;;;;;;;;;4992892;28;20498;-68
2022/12/20 02:59:42;;;;;;;1.90;1.90;;;;;;;;;;5010743;28;20428;-68
2022/12/20 03:02:08;;;;;;;3.10;3.00;;;;;;;;;;5010336;28;20439;-68
2022/12/20 03:04:36;;;;;;;2.20;2.10;;;;;;;;;;5011150;28;20440;-68
2022/12/20 03:07:04;;;;;;;2.67;2.43;;;;;;;;;;5011122;28;20857;-68
2022/12/20 03:09:30;;;;;;;2.40;2.30;;;;;;;;;;5010147;28;20464;-68
2022/12/20 03:11:57;;;;;;;2.67;2.57;;;;;;;;;;5010559;28;20456;-67
2022/12/20 03:14:23;;;;;;;2.63;2.50;;;;;;;;;;5011047;28;20440;-68
2022/12/20 03:16:49;;;;;;;5.20;3.13;;;;;;;;;;5010796;28;20436;-67
2022/12/20 03:19:16;;;;;;;2.40;2.23;;;;;;;;;;5011212;28;20455;-67
2022/12/20 03:21:42;;;;;;;3.10;3.00;;;;;;;;;;4993250;28;20428;-68
2022/12/20 03:24:10;;;;;;;2.73;2.63;;;;;;;;;;5010073;28;20432;-68
2022/12/20 03:26:36;;;;;;;2.70;2.60;;;;;;;;;;5010877;28;20463;-68
2022/12/20 03:29:02;;;;;;;2.20;2.20;;;;;;;;;;5010978;28;20459;-68
2022/12/20 03:31:28;;;;;;;3.23;2.23;;;;;;;;;;5009794;28;20476;-68
2022/12/20 03:33:54;;;;;;;3.00;2.90;;;;;;;;;;5008141;28;20448;-68
2022/12/20 03:36:22;;;;;;;3.00;2.50;;;;;;;;;;5010324;28;20514;-68
2022/12/20 03:38:48;;;;;;;3.17;2.97;;;;;;;;;;5010239;28;20514;-67
2022/12/20 03:41:14;;;;;;;2.10;2.10;;;;;;;;;;5009668;28;20440;-68
2022/12/20 03:43:40;;;;;;;4.23;2.30;;;;;;;;;;5010534;28;20439;-67
2022/12/20 03:46:06;;;;;;;2.57;2.47;;;;;;;;;;5009893;28;20440;-68
2022/12/20 03:48:32;;;;;;;2.53;2.50;;;;;;;;;;5009957;28;20428;-67
2022/12/20 03:50:58;;;;;;;2.43;2.33;;;;;;;;;;5010625;28;20492;-68
2022/12/20 03:53:24;;;;;;;3.53;3.13;;;;;;;;;;5010281;28;20425;-69
2022/12/20 03:55:50;;;;;;;2.77;2.67;;;;;;;;;;5010095;28;21019;-68
2022/12/20 03:58:16;;;;;;;2.70;2.60;;;;;;;;;;5009777;28;20519;-68
2022/12/20 04:00:42;;;;;;;3.40;3.20;;;;;;;;;;5008839;28;20518;-68
2022/12/20 04:03:08;;;;;;;2.30;2.30;;;;;;;;;;5009286;28;20967;-68
2022/12/20 04:05:34;;;;;;;4.10;3.33;;;;;;;;;;5009065;28;20424;-68
2022/12/20 04:08:00;;;;;;;2.70;2.60;;;;;;;;;;5009538;28;20440;-68
2022/12/20 04:10:26;;;;;;;2.97;2.87;;;;;;;;;;4992139;28;20480;-67
2022/12/20 04:12:52;;;;;;;3.90;3.30;;;;;;;;;;5008577;28;20484;-68
2022/12/20 04:15:18;;;;;;;3.07;2.87;;;;;;;;;;5010262;28;20449;-68
2022/12/20 04:17:44;;;;;;;3.00;3.00;;;;;;;;;;5010178;28;20447;-68
2022/12/20 04:20:20;;;;;;;4.63;2.53;;;;;;;;;;5009546;28;20432;-68
2022/12/20 04:22:50;;;;;;;3.00;2.80;;;;;;;;;;4992738;28;20467;-68
2022/12/20 04:25:17;;;;;;;3.93;3.63;;;;;;;;;;5009455;28;20948;-68
2022/12/20 04:27:43;;;;;;;3.73;3.43;;;;;;;;;;5008792;28;20428;-68
2022/12/20 04:30:09;;;;;;;3.50;2.70;;;;;;;;;;5008829;28;21300;-68
2022/12/20 04:32:36;;;;;;;4.10;3.90;;;;;;;;;;5009258;28;20428;-68
2022/12/20 04:35:02;;;;;;;4.00;3.53;;;;;;;;;;5008866;28;20435;-68
2022/12/20 04:37:29;;;;;;;3.60;3.27;;;;;;;;;;5008979;28;20777;-67
2022/12/20 04:39:55;;;;;;;3.20;3.20;;;;;;;;;;5009505;28;20535;-66
2022/12/20 04:42:21;;;;;;;3.93;3.73;;;;;;;;;;5008531;28;20999;-68
2022/12/20 04:44:47;;;;;;;4.00;3.80;;;;;;;;;;5009299;28;20518;-69
2022/12/20 04:47:13;;;;;;;3.83;3.53;;;;;;;;;;5008056;28;20527;-67
2022/12/20 04:49:39;;;;;;;3.40;3.30;;;;;;;;;;5008231;28;20432;-68
2022/12/20 04:54:49;;;;;;;3.53;3.33;;;;;;;;;;5008032;28;20415;-68
2022/12/20 04:57:15;;;;;;;3.50;3.30;;;;;;;;;;5007875;28;20440;-68
2022/12/20 04:59:41;;;;;;;6.27;3.93;;;;;;;;;;4992009;28;20416;-67
2022/12/20 05:02:07;;;;;;;3.50;3.30;;;;;;;;;;5009599;28;20823;-67
2022/12/20 05:04:33;;;;;;;3.93;3.50;;;;;;;;;;5007362;28;20436;-68
2022/12/20 05:06:59;;;;;;;3.97;3.77;;;;;;;;;;5009523;28;20530;-68
2022/12/20 05:09:25;;;;;;;4.10;3.30;;;;;;;;;;5008871;28;20946;-68
2022/12/20 05:11:51;;;;;;;3.57;3.33;;;;;;;;;;5009386;28;20834;-68
2022/12/20 05:14:17;;;;;;;4.30;3.67;;;;;;;;;;5009155;28;20484;-67
2022/12/20 05:16:43;;;;;;;3.73;3.33;;;;;;;;;;5009263;28;20924;-68
2022/12/20 05:19:09;;;;;;;4.27;3.97;;;;;;;;;;5009009;28;20423;-68
2022/12/20 05:27:04;;;;;;;8.33;3.47;;;;;;;;;;5008726;28;20431;-68
2022/12/20 05:29:30;;;;;;;3.17;3.07;;;;;;;;;;5008293;28;20435;-68
2022/12/20 05:31:56;;;;;;;6.20;4.80;;;;;;;;;;5008421;28;20483;-68
2022/12/20 05:34:22;;;;;;;3.67;3.47;;;;;;;;;;5008060;28;20859;-67
2022/12/20 05:36:48;;;;;;;5.13;4.17;;;;;;;;;;5009203;28;20432;-67
2022/12/20 05:39:14;;;;;;;3.93;3.20;;;;;;;;;;5008698;28;20855;-67
2022/12/20 05:41:40;;;;;;;4.20;3.80;;;;;;;;;;5009012;28;20467;-67
2022/12/20 05:44:06;;;;;;;3.50;3.40;;;;;;;;;;5008675;28;20479;-68
2022/12/20 05:46:33;;;;;;;5.90;3.73;;;;;;;;;;4990999;28;20478;-68
2022/12/20 05:48:59;;;;;;;5.20;4.67;;;;;;;;;;5007051;28;20819;-66
2022/12/20 05:51:25;;;;;;;4.63;4.40;;;;;;;;;;4991656;28;20479;-66
2022/12/20 05:53:51;;;;;;;4.97;4.43;;;;;;;;;;4991750;28;20412;-67
2022/12/20 05:56:17;;;;;;;4.97;3.73;;;;;;;;;;5009152;28;20440;-68
2022/12/20 05:58:43;;;;;;;12.33;4.27;;;;;;;;;;5011470;28;20909;-66
2022/12/20 06:01:09;;;;;;;7.53;4.43;;;;;;;;;;5012152;28;20448;-68
2022/12/20 06:03:35;;;;;;;4.97;4.67;;;;;;;;;;5012228;28;20899;-67
2022/12/20 06:06:01;;;;;;;8.70;4.63;;;;;;;;;;5012467;28;20432;-68
2022/12/20 06:08:27;;;;;;;5.37;4.97;;;;;;;;;;5011711;28;20424;-67
2022/12/20 06:10:53;;;;;;;4.20;3.20;;;;;;;;;;5012057;28;20561;-68
2022/12/20 06:13:20;;;;;;;3.10;2.93;;;;;;;;;;5012126;28;20549;-67
2022/12/20 06:15:45;;;;;;;9.10;2.33;;;;;;;;;;5012392;28;20447;-68
2022/12/20 06:18:12;;;;;;;2.53;2.33;;;;;;;;;;5006599;28;20432;-67
2022/12/20 06:20:38;;;;;;;2.57;2.40;;;;;;;;;;5010567;28;20499;-67
2022/12/20 06:23:04;;;;;;;6.93;2.93;;;;;;;;;;5009817;28;20428;-68
2022/12/20 06:25:31;;;;;;;3.23;2.63;;;;;;;;;;5010449;28;20444;-69
2022/12/20 06:27:57;;;;;;;3.33;3.00;;;;;;;;;;5009245;28;20499;-67
2022/12/20 06:30:24;;;;;;;4.63;2.90;;;;;;;;;;5010631;28;20939;-68
2022/12/20 06:32:50;;;;;;;2.50;2.50;;;;;;;;;;5007379;28;20443;-68
2022/12/20 06:35:16;;;;;;;2.63;2.53;;;;;;;;;;5010060;28;20447;-67
2022/12/20 06:37:42;;;;;;;5.93;2.73;;;;;;;;;;5011194;28;20413;-66
2022/12/20 06:40:09;;;;;;;2.70;2.60;;;;;;;;;;5009370;28;21022;-67
2022/12/20 06:42:35;;;;;;;4.20;2.53;;;;;;;;;;5010824;28;20442;-68
2022/12/20 06:45:01;;;;;;;2.60;2.50;;;;;;;;;;5009313;28;20644;-68
2022/12/20 06:47:27;;;;;;;2.10;2.10;;;;;;;;;;5009839;28;20515;-67
2022/12/20 06:49:53;;;;;;;2.20;2.10;;;;;;;;;;5009729;28;20462;-68
2022/12/20 06:52:19;;;;;;;2.57;2.40;;;;;;;;;;5010537;28;20444;-67
2022/12/20 06:54:45;;;;;;;4.17;3.77;;;;;;;;;;5010864;28;20503;-68
2022/12/20 06:57:11;;;;;;;2.10;2.00;;;;;;;;;;5009048;28;20816;-69
2022/12/20 06:59:37;;;;;;;2.60;1.33;;;;;;;;;;5009797;28;20424;-68
2022/12/20 07:02:03;;;;;;;2.77;2.67;;;;;;;;;;5010674;28;20440;-68
2022/12/20 07:04:29;;;;;;;1.93;1.90;;;;;;;;;;5010326;28;20432;-68
2022/12/20 07:06:56;;;;;;;4.03;3.43;;;;;;;;;;5010546;28;20982;-67
2022/12/20 07:09:22;;;;;;;3.93;3.70;;;;;;;;;;5010036;28;20435;-68
2022/12/20 07:11:48;;;;;;;4.07;3.60;;;;;;;;;;5009204;28;20491;-67
2022/12/20 07:14:14;;;;;;;4.07;3.77;;;;;;;;;;5008766;28;20995;-68
2022/12/20 07:16:42;;;;;;;7.07;6.37;;;;;;;;;;5007637;28;20466;-66
2022/12/20 07:19:10;;;;;;;12.23;7.30;;;;;;;;;;5007913;28;20808;-68
2022/12/20 07:21:36;;;;;;;5.27;4.90;;;;;;;;;;5009934;28;20436;-68
2022/12/20 07:24:02;;;;;;;6.87;5.70;;;;;;;;;;4991181;28;20828;-67
2022/12/20 07:26:28;;;;;;;4.00;3.80;;;;;;;;;;5009769;28;20498;-67
2022/12/20 07:28:54;;;;;;;5.10;4.70;;;;;;;;;;5010114;28;20934;-68
2022/12/20 07:31:20;;;;;;;4.93;4.53;;;;;;;;;;4992569;28;20491;-67
2022/12/20 07:33:46;;;;;;;8.87;5.73;;;;;;;;;;5010452;28;20567;-67
2022/12/20 07:36:12;;;;;;;12.00;5.30;;;;;;;;;;5005542;28;20490;-67
2022/12/20 07:38:39;;;;;;;9.10;5.47;;;;;;;;;;5009094;28;20424;-67
2022/12/20 07:41:12;;;;;;;12.37;6.67;;;;;;;;;;4991613;28;20432;-66
2022/12/20 07:43:38;;;;;;;15.63;7.60;;;;;;;;;;5009185;28;20424;-66
2022/12/20 07:46:05;;;;;;;15.73;8.23;;;;;;;;;;5009492;28;20508;-67
2022/12/20 07:48:32;;;;;;;14.43;8.80;;;;;;;;;;5009966;28;20497;-67
2022/12/20 07:51:00;;;;;;;20.90;8.93;;;;;;;;;;5009331;28;20487;-67
2022/12/20 07:53:27;;;;;;;19.77;8.83;;;;;;;;;;5008230;28;20443;-67
2022/12/20 07:55:53;;;;;;;10.87;7.13;;;;;;;;;;5008437;28;20428;-66
2022/12/20 07:58:20;;;;;;;10.40;7.43;;;;;;;;;;4991730;28;20913;-66
2022/12/20 08:00:46;;;;;;;6.97;5.73;;;;;;;;;;5008989;28;20427;-66
2022/12/20 08:03:14;;;;;;;8.07;6.37;;;;;;;;;;5009559;28;20424;-66
2022/12/20 08:05:42;;;;;;;15.23;8.60;;;;;;;;;;5002483;28;20448;-66
2022/12/20 08:08:09;;;;;;;11.67;7.40;;;;;;;;;;5004198;28;20420;-66
2022/12/20 08:10:36;;;;;;;11.60;6.60;;;;;;;;;;5006775;28;20475;-66
2022/12/20 08:13:03;;;;;;;11.27;6.00;;;;;;;;;;5009781;28;20484;-66
2022/12/20 08:15:29;;;;;;;5.80;5.33;;;;;;;;;;5009533;28;20429;-66
2022/12/20 08:17:55;;;;;;;6.43;5.80;;;;;;;;;;5007956;28;20436;-67
2022/12/20 08:20:21;;;;;;;5.40;4.93;;;;;;;;;;5009591;28;20436;-66
2022/12/20 08:22:47;;;;;;;4.57;4.17;;;;;;;;;;5009536;28;20527;-66
2022/12/20 08:25:14;;;;;;;3.93;3.70;;;;;;;;;;5009328;28;20874;-66
2022/12/20 08:27:40;;;;;;;3.43;3.30;;;;;;;;;;5008534;28;20420;-66
2022/12/20 08:30:09;;;;;;;4.70;4.30;;;;;;;;;;5007724;28;20488;-66
2022/12/20 08:32:35;;;;;;;8.83;4.47;;;;;;;;;;5008460;28;20438;-66
2022/12/20 08:35:01;;;;;;;4.87;4.50;;;;;;;;;;5009257;28;20839;-66
2022/12/20 08:37:27;;;;;;;5.40;4.23;;;;;;;;;;5008093;28;20466;-66
2022/12/20 08:39:53;;;;;;;6.00;5.50;;;;;;;;;;5008758;28;20440;-66
2022/12/20 08:42:19;;;;;;;5.77;3.63;;;;;;;;;;5008926;28;20432;-66
2022/12/20 08:44:45;;;;;;;5.33;2.60;;;;;;;;;;5008642;28;20913;-66
2022/12/20 08:47:10;;;;;;;5.20;3.53;;;;;;;;;;5007479;28;20416;-67
2022/12/20 08:49:36;;;;;;;2.53;2.40;;;;;;;;;;5007133;28;20442;-66
2022/12/20 08:52:03;;;;;;;2.73;2.53;;;;;;;;;;4988094;28;20498;-66
2022/12/20 08:54:29;;;;;;;2.40;2.40;;;;;;;;;;4991279;28;20429;-66
2022/12/20 08:56:55;;;;;;;38.57;15.77;;;;;;;;;;5004488;28;20447;-66
2022/12/20 08:59:21;;;;;;;10.63;6.83;;;;;;;;;;4985348;28;20432;-66
2022/12/20 09:01:47;;;;;;;12.43;8.13;;;;;;;;;;5005476;28;21607;-66
2022/12/20 09:04:14;;;;;;;6.53;5.80;;;;;;;;;;5007753;28;20845;-73
2022/12/20 09:06:40;;;;;;;3.37;3.17;;;;;;;;;;4999173;28;21203;-67
2022/12/20 09:09:06;;;;;;;2.80;2.60;;;;;;;;;;5005123;28;20444;-67
2022/12/20 09:11:33;;;;;;;3.30;3.10;;;;;;;;;;5008240;28;20495;-66
2022/12/20 09:13:59;;;;;;;3.87;2.90;;;;;;;;;;5008346;28;20483;-67
2022/12/20 09:16:26;;;;;;;4.43;2.67;;;;;;;;;;5009301;28;20853;-67
2022/12/20 09:18:54;;;;;;;10.20;5.67;;;;;;;;;;5006763;28;20936;-67
2022/12/20 09:21:20;;;;;;;3.80;3.50;;;;;;;;;;5008512;28;20440;-66
2022/12/20 09:23:47;;;;;;;3.30;3.20;;;;;;;;;;5008895;28;20424;-67
2022/12/20 09:26:14;;;;;;;3.57;2.83;;;;;;;;;;5008809;28;20432;-66
2022/12/20 09:28:41;;;;;;;2.17;2.07;;;;;;;;;;5007887;28;20799;-67
2022/12/20 09:31:08;;;;;;;2.57;2.47;;;;;;;;;;5009810;28;20494;-67
2022/12/20 09:33:35;;;;;;;3.10;2.90;;;;;;;;;;5013450;28;20526;-67
2022/12/20 09:36:01;;;;;;;3.60;3.40;;;;;;;;;;5010461;28;20465;-66
2022/12/20 09:38:28;;;;;;;2.30;2.20;;;;;;;;;;5012838;28;20924;-67
2022/12/20 09:40:55;;;;;;;4.77;4.03;;;;;;;;;;5012513;28;20432;-67
2022/12/20 09:43:22;;;;;;;3.70;3.40;;;;;;;;;;5013124;28;20456;-66
2022/12/20 09:45:50;;;;;;;3.03;2.90;;;;;;;;;;5012287;28;20444;-66
2022/12/20 09:48:22;;;;;;;2.60;2.50;;;;;;;;;;5012240;28;20836;-66
2022/12/20 09:50:51;;;;;;;3.23;3.03;;;;;;;;;;5012222;28;21006;-66
2022/12/20 09:53:36;;;;;;;2.77;2.57;;;;;;;;;;5012629;28;20425;-66
2022/12/20 09:56:20;;;;;;;3.07;2.73;;;;;;;;;;5012141;28;20428;-66
2022/12/20 09:59:00;;;;;;;3.23;2.90;;;;;;;;;;5012316;28;20447;-66
2022/12/20 10:01:26;;;;;;;3.10;3.00;;;;;;;;;;5012618;28;20460;-66
2022/12/20 10:03:53;;;;;;;3.00;2.83;;;;;;;;;;5012876;28;20428;-67
2022/12/20 10:06:28;;;;;;;2.63;2.40;;;;;;;;;;5012432;28;20420;-66
2022/12/20 10:09:05;;;;;;;2.37;2.30;;;;;;;;;;5011708;28;20474;-66
2022/12/20 10:11:31;;;;;;;6.13;2.60;;;;;;;;;;5011434;28;20483;-66
2022/12/20 10:13:57;;;;;;;3.10;2.90;;;;;;;;;;5012728;28;20809;-66
2022/12/20 10:16:37;;;;;;;2.70;2.60;;;;;;;;;;5011835;28;20961;-66
2022/12/20 10:19:12;;;;;;;2.93;2.80;;;;;;;;;;5012020;28;20458;-66
2022/12/20 10:21:55;;;;;;;3.60;3.30;;;;;;;;;;5012226;28;20443;-66
2022/12/20 10:24:27;;;;;;;3.10;2.93;;;;;;;;;;5011071;28;20459;-66
2022/12/20 10:26:53;;;;;;;2.57;2.47;;;;;;;;;;5011274;28;20429;-66
2022/12/20 10:29:20;;;;;;;2.03;2.03;;;;;;;;;;4994627;28;21015;-66
2022/12/20 10:31:46;;;;;;;1.90;1.90;;;;;;;;;;5010767;28;20519;-66
2022/12/20 10:34:12;;;;;;;3.27;3.10;;;;;;;;;;5010412;28;20436;-67
2022/12/20 10:36:38;;;;;;;2.63;2.20;;;;;;;;;;5011840;28;20458;-66
2022/12/20 10:39:08;;;;;;;3.03;2.83;;;;;;;;;;4994062;28;20821;-66
2022/12/20 10:41:43;;;;;;;2.90;2.80;;;;;;;;;;5011625;28;20444;-66
2022/12/20 10:44:15;;;;;;;5.63;5.10;;;;;;;;;;5012224;28;20443;-66
2022/12/20 10:46:42;;;;;;;2.57;2.47;;;;;;;;;;5011868;28;20439;-66
2022/12/20 10:49:27;;;;;;;5.80;5.30;;;;;;;;;;5010951;28;20558;-66
2022/12/20 10:51:54;;;;;;;8.90;8.00;;;;;;;;;;5010923;28;20515;-66
2022/12/20 10:54:24;;;;;;;9.93;8.00;;;;;;;;;;5009201;28;20490;-66
2022/12/20 10:56:58;;;;;;;4.97;4.60;;;;;;;;;;5009540;28;20785;-66
2022/12/20 10:59:36;;;;;;;5.50;5.10;;;;;;;;;;5010850;28;20932;-67
2022/12/20 11:02:02;;;;;;;7.07;6.20;;;;;;;;;;5010396;28;21017;-66
2022/12/20 11:04:33;;;;;;;5.47;5.00;;;;;;;;;;5010106;28;20541;-66
2022/12/20 11:07:00;;;;;;;6.03;4.63;;;;;;;;;;5011054;28;20472;-66
2022/12/20 11:09:30;;;;;;;4.17;3.27;;;;;;;;;;5008153;28;20432;-66
2022/12/20 11:12:01;;;;;;;4.37;4.10;;;;;;;;;;5010878;28;20514;-66
2022/12/20 11:14:27;;;;;;;3.77;3.57;;;;;;;;;;5010391;28;20472;-67
2022/12/20 11:16:55;;;;;;;3.97;3.73;;;;;;;;;;4992814;28;20443;-66
2022/12/20 11:19:33;;;;;;;2.90;2.80;;;;;;;;;;5011030;28;20912;-66
2022/12/20 11:22:04;;;;;;;4.80;4.50;;;;;;;;;;5011363;28;20960;-66
2022/12/20 11:24:30;;;;;;;9.23;8.07;;;;;;;;;;4993188;28;20432;-66
2022/12/20 11:26:56;;;;;;;16.97;10.53;;;;;;;;;;4993403;28;20455;-66
2022/12/20 11:29:28;;;;;;;7.87;7.20;;;;;;;;;;5011279;28;20470;-66
2022/12/20 11:31:59;;;;;;;8.20;7.50;;;;;;;;;;5009173;28;20522;-66
2022/12/20 11:34:25;;;;;;;7.00;6.50;;;;;;;;;;5010345;28;20471;-66
2022/12/20 11:36:51;;;;;;;4.30;4.10;;;;;;;;;;5009978;28;20471;-66
2022/12/20 11:39:31;;;;;;;6.10;5.50;;;;;;;;;;5010575;28;20486;-66
2022/12/20 11:42:02;;;;;;;4.13;3.83;;;;;;;;;;5009946;28;20519;-66
2022/12/20 11:44:47;;;;;;;3.90;3.60;;;;;;;;;;5010415;28;20528;-66
2022/12/20 11:47:25;;;;;;;7.73;6.87;;;;;;;;;;5009376;28;20482;-66
2022/12/20 11:50:10;;;;;;;4.60;4.33;;;;;;;;;;5009862;28;20990;-66
2022/12/20 11:52:43;;;;;;;4.30;4.00;;;;;;;;;;4993038;28;20439;-66
2022/12/20 11:55:12;;;;;;;5.10;4.60;;;;;;;;;;5009034;28;20428;-66
2022/12/20 11:57:48;;;;;;;5.27;4.87;;;;;;;;;;5009259;28;20435;-66
2022/12/20 12:00:14;;;;;;;9.40;5.87;;;;;;;;;;5010069;28;20482;-66
2022/12/20 12:02:47;;;;;;;5.73;5.23;;;;;;;;;;5010298;28;21004;-66
2022/12/20 12:05:26;;;;;;;6.90;6.23;;;;;;;;;;5010554;28;20467;-66
2022/12/20 12:07:56;;;;;;;8.40;5.27;;;;;;;;;;4992749;28;20434;-66
2022/12/20 12:10:24;;;;;;;9.23;7.27;;;;;;;;;;5008329;28;20494;-66
2022/12/20 12:12:50;;;;;;;7.77;4.90;;;;;;;;;;5009294;28;20509;-66
2022/12/20 12:15:26;;;;;;;8.63;6.30;;;;;;;;;;5008029;28;20775;-66
2022/12/20 12:18:08;;;;;;;5.50;4.63;;;;;;;;;;4991962;28;20456;-66
2022/12/20 12:20:51;;;;;;;5.68;5.10;;;;;;;;;;5008180;28;20423;-66
2022/12/20 12:23:34;;;;;;;6.50;5.47;;;;;;;;;;4991357;28;20190;-67
2022/12/20 12:26:02;;;;;;;7.83;5.27;;;;;;;;;;5007851;28;20459;-67
2022/12/20 12:28:28;;;;;;;5.00;4.67;;;;;;;;;;5009141;28;20444;-72
2022/12/20 12:30:57;;;;;;;8.50;5.60;;;;;;;;;;5008431;28;20524;-66
2022/12/20 12:33:37;;;;;;;6.13;5.53;;;;;;;;;;5008384;28;20569;-67
2022/12/20 12:36:06;;;;;;;5.00;4.60;;;;;;;;;;5008024;28;20424;-67
2022/12/20 12:38:38;;;;;;;2.90;2.80;;;;;;;;;;5008446;28;20432;-67
2022/12/20 12:41:25;;;;;;;7.10;4.20;;;;;;;;;;5008679;28;20412;-67
2022/12/20 12:43:53;;;;;;;2.50;2.50;;;;;;;;;;5004434;28;20952;-67
2022/12/20 12:46:30;;;;;;;2.80;2.70;;;;;;;;;;5008607;28;20424;-66
2022/12/20 12:49:02;;;;;;;4.10;2.67;;;;;;;;;;5009818;28;20467;-67
2022/12/20 12:51:30;;;;;;;1.80;1.73;;;;;;;;;;5008745;28;20533;-67
2022/12/20 12:54:09;;;;;;;5.70;2.30;;;;;;;;;;5009565;28;20566;-67
2022/12/20 12:56:38;;;;;;;3.87;2.30;;;;;;;;;;5009912;28;20428;-66
2022/12/20 12:59:10;;;;;;;11.40;2.90;;;;;;;;;;4992244;28;20885;-67
2022/12/20 13:01:47;;;;;;;1.60;1.60;;;;;;;;;;5005959;28;20444;-67
2022/12/20 13:04:19;;;;;;;2.20;2.10;;;;;;;;;;5006875;28;20485;-68
2022/12/20 13:06:48;;;;;;;1.50;1.50;;;;;;;;;;5010466;28;20836;-67
2022/12/20 13:09:19;;;;;;;1.40;1.40;;;;;;;;;;5010996;28;20462;-67
2022/12/20 13:11:45;;;;;;;1.80;1.70;;;;;;;;;;5012646;28;20582;-67
2022/12/20 13:14:31;;;;;;;1.57;1.47;;;;;;;;;;5012680;28;21027;-67
2022/12/20 13:17:00;;;;;;;1.20;1.07;;;;;;;;;;5013306;28;20419;-67
2022/12/20 13:19:26;;;;;;;3.30;1.23;;;;;;;;;;5012911;28;20444;-66
2022/12/20 13:21:56;;;;;;;1.23;1.23;;;;;;;;;;5012437;28;20587;-67
2022/12/20 13:24:37;;;;;;;1.10;1.10;;;;;;;;;;5012945;28;20435;-67
2022/12/20 13:27:24;;;;;;;1.10;1.10;;;;;;;;;;5012361;28;20454;-74
2022/12/20 13:29:58;;;;;;;1.00;1.00;;;;;;;;;;5011921;28;20454;-66
2022/12/20 13:32:42;;;;;;;4.57;1.03;;;;;;;;;;5012695;28;20443;-66
2022/12/20 13:35:23;;;;;;;2.03;1.90;;;;;;;;;;5011086;28;20443;-67
2022/12/20 13:38:01;;;;;;;2.10;1.47;;;;;;;;;;5012258;28;20193;-66
2022/12/20 13:40:39;;;;;;;2.40;1.47;;;;;;;;;;5007934;28;20440;-67
2022/12/20 13:43:20;;;;;;;3.10;1.50;;;;;;;;;;5010138;28;20853;-67
2022/12/20 13:45:56;;;;;;;1.93;1.67;;;;;;;;;;5012478;28;20435;-67
2022/12/20 13:48:27;;;;;;;1.53;1.43;;;;;;;;;;5012200;28;20435;-67
2022/12/20 13:50:54;;;;;;;2.60;1.70;;;;;;;;;;5012832;28;20513;-67
2022/12/20 13:53:22;;;;;;;2.20;2.10;;;;;;;;;;5010793;28;20448;-66
2022/12/20 13:55:51;;;;;;;1.07;1.07;;;;;;;;;;5010096;28;20439;-67
2022/12/20 13:58:18;;;;;;;3.47;1.43;;;;;;;;;;5012298;28;20428;-67
2022/12/20 14:00:46;;;;;;;0.97;0.97;;;;;;;;;;5011405;28;20493;-69
2022/12/20 14:03:26;;;;;;;3.03;1.30;;;;;;;;;;5010450;28;20436;-69
2022/12/20 14:05:56;;;;;;;7.70;2.43;;;;;;;;;;4992566;28;20451;-67
2022/12/20 14:08:25;;;;;;;1.30;1.20;;;;;;;;;;5009650;28;20427;-67
2022/12/20 14:10:51;;;;;;;2.43;1.80;;;;;;;;;;5010072;28;20494;-66
2022/12/20 14:13:19;;;;;;;2.00;1.90;;;;;;;;;;5010267;28;20468;-67
2022/12/20 14:15:46;;;;;;;1.63;1.53;;;;;;;;;;5009985;28;20510;-67
2022/12/20 14:18:23;;;;;;;2.10;2.00;;;;;;;;;;5009579;28;20436;-66
2022/12/20 14:21:00;;;;;;;1.27;1.23;;;;;;;;;;5012110;28;20936;-67
2022/12/20 14:23:30;;;;;;;2.00;1.90;;;;;;;;;;5010466;28;20436;-67
2022/12/20 14:25:57;;;;;;;11.60;2.63;;;;;;;;;;5011021;28;20437;-67
2022/12/20 14:28:43;;;;;;;2.40;2.30;;;;;;;;;;5010967;28;20436;-67
2022/12/20 14:31:23;;;;;;;2.50;2.20;;;;;;;;;;5012040;28;20492;-67
2022/12/20 14:33:50;;;;;;;3.27;3.07;;;;;;;;;;5011179;28;20432;-68
2022/12/20 14:36:16;;;;;;;8.87;4.27;;;;;;;;;;5011279;28;20437;-67
2022/12/20 14:38:43;;;;;;;4.50;3.37;;;;;;;;;;5011528;28;21036;-67
2022/12/20 14:41:29;;;;;;;3.20;2.90;;;;;;;;;;5011773;28;20428;-66
2022/12/20 14:43:55;;;;;;;19.27;3.10;;;;;;;;;;5010888;28;20578;-67
2022/12/20 14:46:24;;;;;;;10.10;3.93;;;;;;;;;;5011125;28;20444;-69
2022/12/20 14:49:05;;;;;;;3.87;3.57;;;;;;;;;;5011339;28;20440;-68
2022/12/20 14:51:31;;;;;;;3.40;3.30;;;;;;;;;;5009760;28;21000;-67
2022/12/20 14:53:58;;;;;;;3.07;2.57;;;;;;;;;;5009678;28;20436;-67
2022/12/20 14:56:25;;;;;;;4.70;2.60;;;;;;;;;;4991941;28;20527;-67
2022/12/20 14:59:13;;;;;;;2.43;2.20;;;;;;;;;;5011393;28;20444;-67
2022/12/20 15:01:39;;;;;;;8.35;3.78;;;;;;;;;;5009737;28;20433;-66